createdAt,value
2019-01-08T00:00:39.515Z,3.50
2019-01-08T00:03:09.311Z,2.70
2019-01-08T00:05:39.160Z,3.47
2019-01-08T00:08:08.946Z,3.47
2019-01-08T00:10:38.711Z,3.90
2019-01-08T00:13:08.526Z,3.87
2019-01-08T00:15:38.304Z,3.43
2019-01-08T00:18:08.080Z,2.77
2019-01-08T00:20:37.883Z,3.50
2019-01-08T00:23:08.085Z,2.17
2019-01-08T00:25:37.935Z,2.77
2019-01-08T00:28:07.894Z,2.60
2019-01-08T00:30:37.681Z,3.00
2019-01-08T00:33:07.845Z,3.63
2019-01-08T00:35:37.965Z,3.40
2019-01-08T00:38:07.781Z,3.33
2019-01-08T00:40:37.622Z,5.13
2019-01-08T00:43:07.717Z,4.83
2019-01-08T00:45:37.563Z,6.27
2019-01-08T00:48:07.335Z,6.97
2019-01-08T00:50:37.129Z,6.03
2019-01-08T00:53:06.923Z,6.90
2019-01-08T00:55:36.717Z,7.10
2019-01-08T00:58:06.492Z,7.40
2019-01-08T01:00:36.284Z,5.77
2019-01-08T01:03:06.147Z,6.30
2019-01-08T01:05:37.056Z,4.73
2019-01-08T01:08:06.810Z,4.70
2019-01-08T01:10:36.676Z,3.20
2019-01-08T01:13:06.493Z,3.13
2019-01-08T01:15:36.269Z,1.67
2019-01-08T01:18:06.083Z,2.33
2019-01-08T01:20:35.879Z,2.20
2019-01-08T01:23:05.706Z,2.77
2019-01-08T01:25:35.480Z,2.60
2019-01-08T01:28:05.261Z,2.20
2019-01-08T01:30:35.043Z,1.77
2019-01-08T01:33:04.817Z,2.27
2019-01-08T01:35:34.612Z,2.10
2019-01-08T01:38:04.387Z,2.03
2019-01-08T01:40:34.196Z,2.60
2019-01-08T01:43:03.953Z,2.05
2019-01-08T01:45:33.761Z,1.75
2019-01-08T01:48:03.602Z,1.83
2019-01-08T01:50:33.771Z,2.00
2019-01-08T01:53:03.852Z,1.55
2019-01-08T01:55:33.702Z,1.65
2019-01-08T01:58:03.466Z,2.07
2019-01-08T02:00:33.303Z,1.87
2019-01-08T02:03:03.107Z,1.95
2019-01-08T02:05:33.323Z,2.45
2019-01-08T02:08:03.114Z,1.65
2019-01-08T02:10:32.938Z,2.02
2019-01-08T02:13:02.770Z,1.30
2019-01-08T02:15:32.559Z,1.77
2019-01-08T02:18:02.411Z,1.35
2019-01-08T02:20:32.529Z,2.00
2019-01-08T02:23:02.338Z,1.85
2019-01-08T02:25:32.275Z,2.05
2019-01-08T02:28:02.326Z,1.45
2019-01-08T02:30:32.265Z,1.55
2019-01-08T02:33:02.048Z,1.82
2019-01-08T02:35:31.816Z,1.45
2019-01-08T02:38:01.603Z,1.60
2019-01-08T02:40:31.383Z,2.35
2019-01-08T02:43:01.184Z,1.85
2019-01-08T02:45:32.266Z,1.40
2019-01-08T02:48:02.065Z,1.50
2019-01-08T02:50:31.907Z,1.60
2019-01-08T02:53:01.692Z,1.20
2019-01-08T02:55:31.500Z,1.32
2019-01-08T02:58:01.294Z,2.50
2019-01-08T03:00:31.098Z,1.90
2019-01-08T03:03:00.924Z,2.02
2019-01-08T03:05:30.688Z,1.40
2019-01-08T03:08:00.490Z,2.10
2019-01-08T03:10:30.276Z,1.35
2019-01-08T03:13:00.074Z,1.52
2019-01-08T03:15:29.985Z,1.42
2019-01-08T03:17:59.745Z,1.20
2019-01-08T03:20:29.551Z,1.65
2019-01-08T03:22:59.345Z,1.52
2019-01-08T03:25:29.162Z,2.05
2019-01-08T03:27:58.965Z,1.92
2019-01-08T03:30:28.766Z,3.05
2019-01-08T03:32:58.518Z,1.82
2019-01-08T03:35:28.316Z,1.80
2019-01-08T03:37:58.332Z,2.05
2019-01-08T03:40:28.102Z,2.08
2019-01-08T03:42:57.906Z,1.90
2019-01-08T03:45:27.675Z,2.52
2019-01-08T03:47:57.452Z,2.45
2019-01-08T03:50:27.270Z,1.65
2019-01-08T03:52:57.085Z,1.70
2019-01-08T03:55:26.850Z,1.57
2019-01-08T03:57:56.609Z,1.65
2019-01-08T04:00:26.743Z,1.77
2019-01-08T04:02:56.507Z,1.25
2019-01-08T04:05:26.317Z,1.90
2019-01-08T04:07:56.439Z,2.70
2019-01-08T04:10:26.215Z,1.62
2019-01-08T04:12:56.022Z,2.15
2019-01-08T04:15:25.923Z,1.80
2019-01-08T04:17:55.704Z,1.60
2019-01-08T04:20:25.535Z,1.30
2019-01-08T04:22:55.293Z,1.55
2019-01-08T04:25:25.098Z,3.05
2019-01-08T04:27:54.934Z,1.65
2019-01-08T04:30:24.727Z,1.62
2019-01-08T04:32:54.479Z,1.32
2019-01-08T04:35:25.706Z,1.10
2019-01-08T04:37:55.510Z,1.10
2019-01-08T04:40:44.869Z,2.33
2019-01-08T04:43:14.651Z,1.25
2019-01-08T04:45:44.433Z,1.65
2019-01-08T04:48:14.333Z,1.60
2019-01-08T04:50:44.266Z,1.90
2019-01-08T04:53:14.067Z,2.30
2019-01-08T04:55:43.872Z,1.80
2019-01-08T04:58:13.656Z,2.30
2019-01-08T05:00:43.437Z,1.05
2019-01-08T05:03:13.201Z,1.77
2019-01-08T05:05:48.007Z,2.05
2019-01-08T05:08:17.773Z,1.60
2019-01-08T05:10:47.588Z,1.67
2019-01-08T05:13:17.358Z,1.72
2019-01-08T05:15:47.182Z,2.40
2019-01-08T05:18:16.997Z,2.70
2019-01-08T05:20:47.135Z,2.80
2019-01-08T05:23:17.035Z,1.95
2019-01-08T05:25:46.829Z,1.80
2019-01-08T05:28:16.666Z,1.90
2019-01-08T05:30:46.464Z,1.62
2019-01-08T05:33:16.287Z,2.15
2019-01-08T05:35:46.073Z,2.17
2019-01-08T05:38:16.148Z,2.00
2019-01-08T05:40:45.960Z,2.58
2019-01-08T05:43:15.741Z,1.80
2019-01-08T05:45:45.580Z,1.62
2019-01-08T05:48:15.365Z,2.72
2019-01-08T05:50:45.260Z,2.12
2019-01-08T05:53:15.049Z,1.85
2019-01-08T05:55:44.899Z,1.90
2019-01-08T05:58:14.711Z,3.62
2019-01-08T06:00:44.629Z,1.87
2019-01-08T06:03:14.713Z,1.70
2019-01-08T06:05:45.394Z,2.25
2019-01-08T06:08:15.200Z,1.92
2019-01-08T06:10:45.138Z,2.30
2019-01-08T06:13:14.908Z,2.25
2019-01-08T06:15:44.713Z,2.30
2019-01-08T06:18:14.504Z,1.95
2019-01-08T06:20:44.317Z,2.70
2019-01-08T06:23:14.164Z,1.70
2019-01-08T06:25:43.965Z,1.85
2019-01-08T06:28:13.791Z,1.82
2019-01-08T06:30:43.602Z,2.30
2019-01-08T06:33:13.375Z,1.98
2019-01-08T06:35:43.174Z,3.00
2019-01-08T06:38:12.980Z,1.72
2019-01-08T06:40:42.753Z,2.10
2019-01-08T06:43:12.561Z,1.70
2019-01-08T06:45:42.360Z,2.80
2019-01-08T06:48:12.158Z,2.55
2019-01-08T06:50:42.029Z,1.92
2019-01-08T06:53:12.176Z,2.08
2019-01-08T06:55:41.976Z,1.60
2019-01-08T06:58:11.786Z,2.02
2019-01-08T07:00:41.598Z,2.92
2019-01-08T07:03:11.367Z,1.75
2019-01-08T07:05:41.713Z,1.80
2019-01-08T07:08:11.490Z,2.67
2019-01-08T07:10:41.266Z,2.10
2019-01-08T07:13:11.054Z,2.27
2019-01-08T07:15:40.855Z,1.62
2019-01-08T07:18:10.656Z,2.20
2019-01-08T07:20:40.476Z,3.65
2019-01-08T07:23:10.355Z,3.15
2019-01-08T07:25:42.281Z,3.40
2019-01-08T07:28:11.694Z,1.60
2019-01-08T07:30:41.938Z,2.10
2019-01-08T07:33:11.757Z,2.25
2019-01-08T07:35:41.538Z,2.37
2019-01-08T07:38:11.323Z,2.30
2019-01-08T07:40:41.514Z,1.90
2019-01-08T07:43:11.325Z,1.90
2019-01-08T07:45:41.080Z,2.42
2019-01-08T07:48:10.909Z,2.15
2019-01-08T07:50:40.698Z,1.80
2019-01-08T07:53:10.502Z,1.42
2019-01-08T07:55:40.317Z,1.90
2019-01-08T07:58:10.114Z,2.00
2019-01-08T08:00:39.894Z,1.32
2019-01-08T08:03:09.653Z,2.75
2019-01-08T08:05:39.447Z,1.50
2019-01-08T08:08:09.231Z,2.02
2019-01-08T08:10:39.035Z,1.47
2019-01-08T08:13:08.867Z,2.77
2019-01-08T08:15:38.635Z,1.60
2019-01-08T08:18:08.442Z,1.50
2019-01-08T08:20:38.765Z,1.65
2019-01-08T08:23:08.946Z,1.80
2019-01-08T08:25:38.718Z,2.08
2019-01-08T08:28:08.539Z,1.53
2019-01-08T08:30:38.324Z,2.40
2019-01-08T08:33:08.123Z,2.30
2019-01-08T08:35:37.901Z,2.45
2019-01-08T08:38:07.674Z,1.67
2019-01-08T08:40:37.463Z,1.95
2019-01-08T08:43:07.257Z,1.62
2019-01-08T08:45:37.064Z,1.72
2019-01-08T08:48:06.849Z,1.95
2019-01-08T08:50:36.653Z,2.55
2019-01-08T08:53:06.458Z,2.22
2019-01-08T08:55:36.227Z,2.35
2019-01-08T08:58:06.028Z,1.37
2019-01-08T09:00:35.819Z,2.25
2019-01-08T09:03:05.655Z,1.77
2019-01-08T09:05:35.441Z,1.10
2019-01-08T09:08:05.216Z,1.83
2019-01-08T09:10:35.035Z,1.90
2019-01-08T09:13:04.826Z,1.50
2019-01-08T09:15:34.602Z,1.75
2019-01-08T09:18:04.382Z,1.92
2019-01-08T09:20:34.184Z,1.17
2019-01-08T09:23:03.970Z,2.00
2019-01-08T09:25:34.066Z,2.27
2019-01-08T09:28:03.921Z,1.20
2019-01-08T09:30:33.715Z,1.60
2019-01-08T09:33:03.478Z,1.82
2019-01-08T09:35:33.302Z,1.45
2019-01-08T09:38:03.069Z,0.70
2019-01-08T09:40:32.889Z,1.45
2019-01-08T09:43:02.661Z,1.55
2019-01-08T09:45:32.553Z,1.25
2019-01-08T09:48:02.306Z,1.02
2019-01-08T09:50:32.184Z,1.50
2019-01-08T09:53:02.062Z,1.00
2019-01-08T09:55:31.988Z,1.90
2019-01-08T09:58:01.761Z,1.47
2019-01-08T10:00:31.546Z,1.30
2019-01-08T10:03:01.336Z,1.42
2019-01-08T10:05:31.097Z,1.62
2019-01-08T10:08:00.955Z,1.77
2019-01-08T10:10:30.702Z,1.55
2019-01-08T10:13:00.532Z,1.60
2019-01-08T10:15:30.294Z,1.55
2019-01-08T10:18:00.107Z,1.72
2019-01-08T10:20:29.898Z,1.70
2019-01-08T10:23:01.158Z,2.15
2019-01-08T10:25:30.938Z,2.10
2019-01-08T10:28:00.731Z,2.00
2019-01-08T10:30:30.519Z,1.63
2019-01-08T10:33:00.333Z,2.05
2019-01-08T10:35:30.150Z,2.02
2019-01-08T10:37:59.948Z,1.10
2019-01-08T10:40:29.763Z,1.20
2019-01-08T10:42:59.530Z,2.12
2019-01-08T10:45:29.712Z,2.33
2019-01-08T10:47:59.500Z,2.08
2019-01-08T10:50:29.266Z,1.77
2019-01-08T10:52:59.069Z,2.13
2019-01-08T10:55:28.829Z,1.40
2019-01-08T10:57:58.625Z,1.23
2019-01-08T11:00:28.406Z,1.10
2019-01-08T11:02:58.216Z,1.50
2019-01-08T11:05:28.041Z,1.37
2019-01-08T11:07:57.849Z,1.57
2019-01-08T11:10:27.643Z,1.47
2019-01-08T11:12:57.433Z,1.93
2019-01-08T11:15:27.249Z,1.57
2019-01-08T11:17:57.119Z,1.80
2019-01-08T11:20:26.880Z,1.98
2019-01-08T11:22:56.712Z,1.40
2019-01-08T11:25:26.857Z,1.40
2019-01-08T11:27:56.628Z,1.92
2019-01-08T11:30:26.442Z,2.60
2019-01-08T11:32:56.236Z,1.80
2019-01-08T11:35:26.051Z,1.52
2019-01-08T11:37:55.820Z,1.93
2019-01-08T11:40:25.631Z,1.37
2019-01-08T11:42:55.394Z,1.50
2019-01-08T11:45:25.211Z,1.80
2019-01-08T11:48:03.577Z,1.62
2019-01-08T11:50:26.621Z,2.22
2019-01-08T11:52:56.445Z,1.77
2019-01-08T11:55:26.327Z,1.72
2019-01-08T11:57:56.111Z,1.95
2019-01-08T12:00:25.890Z,1.45
2019-01-08T12:02:55.659Z,1.47
2019-01-08T12:05:25.471Z,2.90
2019-01-08T12:07:55.252Z,1.50
2019-01-08T12:10:25.357Z,2.80
2019-01-08T12:12:55.121Z,1.37
2019-01-08T12:15:24.935Z,1.20
2019-01-08T12:17:54.704Z,2.30
2019-01-08T12:20:24.487Z,1.43
2019-01-08T12:22:54.308Z,1.70
2019-01-08T12:25:24.133Z,1.10
2019-01-08T12:27:54.006Z,1.60
2019-01-08T12:30:23.796Z,1.32
2019-01-08T12:32:53.609Z,1.83
2019-01-08T12:35:23.409Z,1.23
2019-01-08T12:37:53.194Z,1.30
2019-01-08T12:40:22.938Z,1.43
2019-01-08T12:42:52.741Z,1.60
2019-01-08T12:45:22.541Z,2.52
2019-01-08T12:47:52.328Z,2.45
2019-01-08T12:50:22.162Z,1.42
2019-01-08T12:52:52.047Z,1.47
2019-01-08T12:55:21.876Z,1.45
2019-01-08T12:57:51.742Z,1.95
2019-01-08T13:00:21.547Z,1.80
2019-01-08T13:02:51.355Z,2.40
2019-01-08T13:05:21.144Z,2.70
2019-01-08T13:07:51.273Z,2.17
2019-01-08T13:10:21.068Z,0.90
2019-01-08T13:12:50.832Z,1.55
2019-01-08T13:15:20.742Z,2.00
2019-01-08T13:17:50.659Z,1.77
2019-01-08T13:20:22.154Z,2.35
2019-01-08T13:22:52.036Z,1.42
2019-01-08T13:25:21.846Z,2.10
2019-01-08T13:27:51.616Z,1.92
2019-01-08T13:30:21.420Z,2.02
2019-01-08T13:32:51.218Z,1.75
2019-01-08T13:35:21.360Z,1.55
2019-01-08T13:37:51.489Z,1.50
2019-01-08T13:40:21.318Z,2.00
2019-01-08T13:42:51.114Z,2.95
2019-01-08T13:45:20.880Z,1.75
2019-01-08T13:47:50.686Z,2.20
2019-01-08T13:50:20.532Z,2.15
2019-01-08T13:52:50.428Z,1.62
2019-01-08T13:55:20.252Z,2.30
2019-01-08T13:57:50.033Z,1.95
2019-01-08T14:00:19.874Z,1.32
2019-01-08T14:02:49.662Z,1.30
2019-01-08T14:05:19.443Z,1.45
2019-01-08T14:07:49.265Z,1.17
2019-01-08T14:10:19.830Z,2.15
2019-01-08T14:12:51.528Z,1.30
2019-01-08T14:15:21.207Z,1.62
2019-01-08T14:17:50.969Z,1.70
2019-01-08T14:20:20.787Z,1.67
2019-01-08T14:22:50.660Z,3.05
2019-01-08T14:25:20.437Z,1.35
2019-01-08T14:27:50.225Z,1.60
2019-01-08T14:30:20.023Z,1.32
2019-01-08T14:32:49.837Z,0.88
2019-01-08T14:35:19.636Z,2.00
2019-01-08T14:37:49.429Z,1.82
2019-01-08T14:40:19.210Z,1.67
2019-01-08T14:42:48.981Z,1.60
2019-01-08T14:45:18.788Z,3.45
2019-01-08T14:47:48.600Z,1.00
2019-01-08T14:50:18.385Z,1.75
2019-01-08T14:52:48.208Z,1.20
2019-01-08T14:55:18.012Z,2.00
2019-01-08T14:57:47.902Z,1.65
2019-01-08T15:00:17.681Z,1.77
2019-01-08T15:02:49.677Z,1.52
2019-01-08T15:05:19.039Z,1.98
2019-01-08T15:07:49.115Z,1.37
2019-01-08T15:10:19.098Z,2.05
2019-01-08T15:12:48.886Z,3.30
2019-01-08T15:15:18.672Z,9.75
2019-01-08T15:17:48.562Z,3.25
2019-01-08T15:20:18.344Z,2.92
2019-01-08T15:22:48.125Z,2.00
2019-01-08T15:25:17.946Z,1.62
2019-01-08T15:27:47.704Z,1.65
2019-01-08T15:30:17.521Z,3.12
2019-01-08T15:32:47.340Z,1.42
2019-01-08T15:35:17.517Z,1.80
2019-01-08T15:37:47.459Z,1.52
2019-01-08T15:40:17.388Z,1.40
2019-01-08T15:42:47.237Z,2.40
2019-01-08T15:45:17.039Z,1.30
2019-01-08T15:47:46.828Z,1.50
2019-01-08T15:50:16.606Z,2.50
2019-01-08T15:52:46.411Z,2.35
2019-01-08T15:55:16.213Z,1.32
2019-01-08T15:57:45.974Z,1.40
2019-01-08T16:00:15.782Z,1.47
2019-01-08T16:02:45.573Z,1.65
2019-01-08T16:05:15.391Z,1.65
2019-01-08T16:07:45.147Z,2.02
2019-01-08T16:10:15.392Z,1.20
2019-01-08T16:12:45.275Z,2.00
2019-01-08T16:15:15.119Z,1.47
2019-01-08T16:17:44.914Z,1.30
2019-01-08T16:20:14.700Z,1.62
2019-01-08T16:22:44.534Z,2.40
2019-01-08T16:25:14.338Z,2.33
2019-01-08T16:27:44.218Z,1.25
2019-01-08T16:30:14.106Z,1.15
2019-01-08T16:32:43.871Z,2.37
2019-01-08T16:35:13.892Z,1.20
2019-01-08T16:37:43.710Z,1.70
2019-01-08T16:40:13.603Z,1.20
2019-01-08T16:42:43.381Z,1.57
2019-01-08T16:45:13.174Z,1.85
2019-01-08T16:47:43.154Z,2.20
2019-01-08T16:50:13.054Z,1.20
2019-01-08T16:52:42.840Z,2.00
2019-01-08T16:55:12.661Z,2.02
2019-01-08T16:57:42.464Z,1.25
2019-01-08T17:00:13.142Z,1.50
2019-01-08T17:02:42.933Z,1.45
2019-01-08T17:05:12.744Z,1.67
2019-01-08T17:07:42.560Z,1.65
2019-01-08T17:10:12.415Z,1.65
2019-01-08T17:12:42.229Z,1.22
2019-01-08T17:15:12.013Z,2.30
2019-01-08T17:17:41.806Z,2.27
2019-01-08T17:20:11.675Z,1.67
2019-01-08T17:22:41.443Z,1.32
2019-01-08T17:25:11.262Z,2.08
2019-01-08T17:27:41.099Z,1.50
2019-01-08T17:30:11.599Z,2.02
2019-01-08T17:32:41.440Z,1.90
2019-01-08T17:35:11.223Z,2.55
2019-01-08T17:37:41.568Z,1.35
2019-01-08T17:40:11.360Z,1.57
2019-01-08T17:42:41.179Z,2.05
2019-01-08T17:45:11.879Z,1.77
2019-01-08T17:47:41.690Z,1.60
2019-01-08T17:50:11.626Z,1.55
2019-01-08T17:52:41.794Z,2.10
2019-01-08T17:55:11.920Z,1.80
2019-01-08T17:57:42.039Z,1.47
2019-01-08T18:00:12.600Z,1.72
2019-01-08T18:02:45.839Z,3.87
2019-01-08T18:05:15.806Z,1.32
2019-01-08T18:07:45.708Z,2.33
2019-01-08T18:10:15.502Z,2.55
2019-01-08T18:12:45.349Z,1.60
2019-01-08T18:15:15.151Z,2.42
2019-01-08T18:17:44.954Z,2.40
2019-01-08T18:20:14.719Z,1.98
2019-01-08T18:22:44.514Z,3.05
2019-01-08T18:25:14.292Z,2.00
2019-01-08T18:27:44.085Z,1.37
2019-01-08T18:30:13.923Z,2.10
2019-01-08T18:32:43.781Z,1.55
2019-01-08T18:35:13.581Z,1.92
2019-01-08T18:37:43.374Z,1.45
2019-01-08T18:40:13.500Z,2.27
2019-01-08T18:42:43.310Z,1.72
2019-01-08T18:45:13.128Z,1.77
2019-01-08T18:47:42.924Z,1.47
2019-01-08T18:50:12.773Z,1.70
2019-01-08T18:52:42.544Z,3.60
2019-01-08T18:55:12.305Z,2.52
2019-01-08T18:57:42.123Z,2.05
2019-01-08T19:00:12.139Z,1.80
2019-01-08T19:02:42.206Z,2.15
2019-01-08T19:05:12.042Z,1.57
2019-01-08T19:07:41.949Z,1.52
2019-01-08T19:10:17.532Z,1.75
2019-01-08T19:12:48.942Z,1.98
2019-01-08T19:15:18.734Z,2.15
2019-01-08T19:17:48.556Z,1.57
2019-01-08T19:20:18.324Z,2.00
2019-01-08T19:22:48.303Z,1.05
2019-01-08T19:25:18.492Z,1.70
2019-01-08T19:27:48.367Z,1.65
2019-01-08T19:30:18.287Z,1.40
2019-01-08T19:32:48.321Z,1.45
2019-01-08T19:35:18.138Z,1.10
2019-01-08T19:37:47.952Z,1.40
2019-01-08T19:40:17.896Z,1.80
2019-01-08T19:42:47.689Z,1.65
2019-01-08T19:45:17.524Z,1.50
2019-01-08T19:47:47.289Z,2.35
2019-01-08T19:50:17.124Z,1.55
2019-01-08T19:52:46.908Z,1.98
2019-01-08T19:55:16.749Z,1.70
2019-01-08T19:57:46.529Z,1.40
2019-01-08T20:00:17.236Z,1.40
2019-01-08T20:02:47.056Z,1.40
2019-01-08T20:05:17.164Z,0.90
2019-01-08T20:07:48.459Z,1.30
2019-01-08T20:10:18.254Z,1.22
2019-01-08T20:12:48.078Z,1.40
2019-01-08T20:15:17.869Z,1.85
2019-01-08T20:17:47.825Z,1.42
2019-01-08T20:20:17.610Z,1.10
2019-01-08T20:22:47.437Z,1.27
2019-01-08T20:25:17.249Z,1.32
2019-01-08T20:27:47.046Z,1.90
2019-01-08T20:30:16.884Z,1.12
2019-01-08T20:32:46.693Z,1.70
2019-01-08T20:35:16.478Z,1.60
2019-01-08T20:37:46.325Z,1.60
2019-01-08T20:40:16.124Z,1.42
2019-01-08T20:42:45.966Z,1.42
2019-01-08T20:45:15.778Z,2.25
2019-01-08T20:47:45.607Z,2.02
2019-01-08T20:50:15.440Z,1.72
2019-01-08T20:52:45.607Z,1.47
2019-01-08T20:55:15.405Z,2.12
2019-01-08T20:57:45.646Z,1.72
2019-01-08T21:00:15.570Z,1.82
2019-01-08T21:02:45.393Z,1.45
2019-01-08T21:05:15.179Z,1.67
2019-01-08T21:07:44.982Z,1.75
2019-01-08T21:10:14.763Z,1.65
2019-01-08T21:12:44.520Z,1.37
2019-01-08T21:15:14.647Z,1.72
2019-01-08T21:17:44.489Z,1.50
2019-01-08T21:20:14.259Z,1.98
2019-01-08T21:22:44.045Z,1.32
2019-01-08T21:25:13.842Z,1.15
2019-01-08T21:27:43.664Z,2.02
2019-01-08T21:30:13.484Z,0.85
2019-01-08T21:32:43.316Z,1.70
2019-01-08T21:35:13.104Z,1.42
2019-01-08T21:37:42.938Z,2.77
2019-01-08T21:40:12.715Z,1.70
2019-01-08T21:42:42.521Z,2.25
2019-01-08T21:45:12.317Z,1.77
2019-01-08T21:47:42.164Z,1.25
2019-01-08T21:50:11.956Z,2.47
2019-01-08T21:52:41.785Z,1.20
2019-01-08T21:55:11.931Z,1.40
2019-01-08T21:57:41.699Z,0.93
2019-01-08T22:00:11.513Z,1.87
2019-01-08T22:02:41.292Z,1.60
2019-01-08T22:05:11.211Z,1.75
2019-01-08T22:07:41.004Z,1.45
2019-01-08T22:10:10.781Z,1.20
2019-01-08T22:12:40.571Z,1.90
2019-01-08T22:15:10.362Z,1.20
2019-01-08T22:17:40.372Z,0.80
2019-01-08T22:20:11.562Z,0.90
2019-01-08T22:22:42.283Z,1.12
2019-01-08T22:25:12.163Z,1.20
2019-01-08T22:27:42.055Z,1.57
2019-01-08T22:30:11.849Z,1.90
2019-01-08T22:32:41.640Z,1.12
2019-01-08T22:35:11.425Z,1.80
2019-01-08T22:37:41.271Z,1.37
2019-01-08T22:40:11.232Z,1.45
2019-01-08T22:42:40.992Z,1.45
2019-01-08T22:45:10.831Z,1.87
2019-01-08T22:47:40.603Z,1.72
2019-01-08T22:50:10.401Z,1.22
2019-01-08T22:52:40.216Z,1.10
2019-01-08T22:55:09.989Z,2.40
2019-01-08T22:57:39.763Z,1.45
2019-01-08T23:00:36.848Z,1.35
2019-01-08T23:03:06.700Z,2.10
2019-01-08T23:05:36.460Z,1.55
2019-01-08T23:08:06.634Z,0.93
2019-01-08T23:10:37.459Z,1.40
2019-01-08T23:13:07.609Z,1.45
2019-01-08T23:15:37.408Z,1.82
2019-01-08T23:18:07.192Z,1.30
2019-01-08T23:20:36.970Z,2.00
2019-01-08T23:23:06.805Z,1.62
2019-01-08T23:25:36.627Z,1.02
2019-01-08T23:28:06.419Z,1.40
2019-01-08T23:30:36.221Z,1.27
2019-01-08T23:33:06.051Z,0.90
2019-01-08T23:35:35.839Z,1.50
2019-01-08T23:38:05.703Z,0.80
2019-01-08T23:40:35.533Z,2.70
2019-01-08T23:43:05.288Z,1.87
2019-01-08T23:45:35.101Z,1.40
2019-01-08T23:48:04.934Z,1.85
2019-01-08T23:50:34.712Z,0.80
2019-01-08T23:53:10.021Z,1.60
2019-01-08T23:55:50.808Z,0.98
2019-01-08T23:58:36.116Z,1.05
